Time;durP1;ratioP1;P1;durP2;ratioP2;P2;SDS_P1;SDS_P2;PMS_P1;PMS_P2;Temp;Humidity;BMP_temperature;BMP_pressure;BME280_temperature;BME280_humidity;BME280_pressure;Samples;Min_cycle;Max_cycle;Signal;HPM_P1;HPM_P2
2023/07/28 00:01:14;;;;;;;23.80;4.93;;;;;;;;;;5058283;28;20067;-76
2023/07/28 00:03:41;;;;;;;29.88;5.18;;;;;;;;;;5028703;28;20075;-76
2023/07/28 00:06:09;;;;;;;24.20;4.97;;;;;;;;;;5027793;28;20039;-78
2023/07/28 00:08:37;;;;;;;28.63;5.10;;;;;;;;;;5010362;28;22182;-77
2023/07/28 00:11:05;;;;;;;28.80;5.13;;;;;;;;;;5005259;28;20120;-77
2023/07/28 00:13:30;;;;;;;26.77;5.43;;;;;;;;;;5036548;28;20245;-76
2023/07/28 00:15:55;;;;;;;22.27;5.20;;;;;;;;;;5005334;28;20037;-77
2023/07/28 00:18:21;;;;;;;23.13;4.97;;;;;;;;;;5039527;28;20569;-76
2023/07/28 00:20:46;;;;;;;32.88;5.22;;;;;;;;;;5006158;28;20065;-78
2023/07/28 00:23:11;;;;;;;25.05;4.93;;;;;;;;;;5003314;28;20025;-78
2023/07/28 00:25:39;;;;;;;26.88;4.97;;;;;;;;;;5036653;28;20039;-76
2023/07/28 00:28:04;;;;;;;23.08;5.03;;;;;;;;;;5025481;28;20645;-77
2023/07/28 00:30:31;;;;;;;31.88;5.60;;;;;;;;;;5058055;28;20048;-78
2023/07/28 00:32:56;;;;;;;21.13;5.38;;;;;;;;;;5029275;28;20033;-78
2023/07/28 00:35:21;;;;;;;26.48;5.22;;;;;;;;;;5022254;28;20552;-76
2023/07/28 00:37:49;;;;;;;21.05;5.40;;;;;;;;;;5008491;28;20042;-77
2023/07/28 00:40:14;;;;;;;29.63;5.78;;;;;;;;;;5026072;28;20092;-78
2023/07/28 00:42:42;;;;;;;23.48;5.30;;;;;;;;;;5009225;28;20029;-75
2023/07/28 00:45:08;;;;;;;23.27;5.40;;;;;;;;;;5011063;28;20038;-77
2023/07/28 00:47:33;;;;;;;24.95;5.82;;;;;;;;;;5025323;28;20052;-77
2023/07/28 00:49:58;;;;;;;29.45;6.30;;;;;;;;;;5024891;28;20527;-78
2023/07/28 00:52:24;;;;;;;21.70;5.15;;;;;;;;;;5007107;28;20095;-77
2023/07/28 00:54:49;;;;;;;27.10;5.95;;;;;;;;;;5025348;28;21149;-79
2023/07/28 00:57:14;;;;;;;30.63;6.03;;;;;;;;;;5025744;28;20033;-79
2023/07/28 00:59:40;;;;;;;25.92;5.35;;;;;;;;;;5028316;28;20030;-79
2023/07/28 01:02:05;;;;;;;29.83;6.18;;;;;;;;;;5056009;28;20561;-78
2023/07/28 01:04:30;;;;;;;26.73;6.18;;;;;;;;;;5025969;28;20036;-79
2023/07/28 01:07:16;;;;;;;23.15;6.30;;;;;;;;;;5019065;28;20041;-77
2023/07/28 01:09:53;;;;;;;29.45;6.38;;;;;;;;;;5019154;28;20033;-78
2023/07/28 01:12:22;;;;;;;25.83;5.85;;;;;;;;;;5023189;28;20059;-77
2023/07/28 01:14:47;;;;;;;27.88;6.20;;;;;;;;;;5027553;28;20045;-75
2023/07/28 01:17:13;;;;;;;29.55;5.70;;;;;;;;;;5002975;28;20747;-77
2023/07/28 01:19:38;;;;;;;30.90;6.28;;;;;;;;;;5023155;28;20041;-77
2023/07/28 01:22:22;;;;;;;28.92;6.13;;;;;;;;;;5006728;28;20494;-77
2023/07/28 01:24:56;;;;;;;33.00;6.68;;;;;;;;;;5008235;28;20040;-77
2023/07/28 01:27:22;;;;;;;28.90;6.53;;;;;;;;;;5027245;28;20041;-76
2023/07/28 01:29:48;;;;;;;29.50;7.15;;;;;;;;;;5022499;28;20033;-77
2023/07/28 01:32:15;;;;;;;27.92;6.90;;;;;;;;;;5028144;28;20056;-77
2023/07/28 01:34:43;;;;;;;29.95;7.57;;;;;;;;;;5025230;28;20703;-76
2023/07/28 01:37:08;;;;;;;36.78;7.75;;;;;;;;;;5028399;28;20127;-76
2023/07/28 01:39:34;;;;;;;26.58;6.40;;;;;;;;;;5024274;28;20773;-76
2023/07/28 01:42:01;;;;;;;35.15;6.97;;;;;;;;;;5025192;28;20033;-75
2023/07/28 01:44:26;;;;;;;30.95;7.68;;;;;;;;;;5024611;28;20623;-78
2023/07/28 01:46:52;;;;;;;24.63;6.85;;;;;;;;;;5024018;28;20044;-77
2023/07/28 01:49:17;;;;;;;22.25;6.80;;;;;;;;;;5056856;28;20041;-76
2023/07/28 01:51:42;;;;;;;31.10;7.68;;;;;;;;;;5032329;28;20184;-76
2023/07/28 01:54:23;;;;;;;21.33;6.88;;;;;;;;;;5006025;28;20029;-77
2023/07/28 01:56:48;;;;;;;27.98;7.20;;;;;;;;;;5011938;28;20088;-76
2023/07/28 01:59:14;;;;;;;29.17;7.75;;;;;;;;;;5024735;28;20043;-76
2023/07/28 02:01:39;;;;;;;26.52;8.38;;;;;;;;;;5023878;28;20033;-77
2023/07/28 02:04:05;;;;;;;29.65;7.80;;;;;;;;;;5022797;28;20026;-77
2023/07/28 02:06:31;;;;;;;28.70;8.40;;;;;;;;;;5026989;28;20040;-77
2023/07/28 02:08:56;;;;;;;25.60;8.45;;;;;;;;;;5032264;28;20025;-76
2023/07/28 02:11:21;;;;;;;26.60;8.45;;;;;;;;;;5010599;28;20628;-76
2023/07/28 02:13:47;;;;;;;28.50;8.20;;;;;;;;;;5006085;28;20030;-76
2023/07/28 02:16:14;;;;;;;28.48;8.10;;;;;;;;;;5007336;28;20045;-76
2023/07/28 02:18:40;;;;;;;25.75;8.20;;;;;;;;;;5004439;28;20026;-76
2023/07/28 02:21:10;;;;;;;27.45;8.38;;;;;;;;;;5018382;28;20087;-76
2023/07/28 02:23:37;;;;;;;30.17;8.40;;;;;;;;;;5004146;28;22491;-77
2023/07/28 02:26:03;;;;;;;31.15;8.55;;;;;;;;;;5022862;28;20033;-76
2023/07/28 02:28:28;;;;;;;28.33;9.20;;;;;;;;;;5007197;28;20575;-76
2023/07/28 02:30:54;;;;;;;39.97;9.63;;;;;;;;;;5009945;28;20046;-78
2023/07/28 02:33:19;;;;;;;26.52;8.73;;;;;;;;;;5011429;28;20575;-77
2023/07/28 02:35:44;;;;;;;34.33;8.70;;;;;;;;;;5015210;28;20147;-78
2023/07/28 02:38:09;;;;;;;31.98;8.82;;;;;;;;;;5029151;28;20029;-78
2023/07/28 02:40:35;;;;;;;29.02;9.02;;;;;;;;;;5034979;28;20124;-75
2023/07/28 02:43:00;;;;;;;26.98;8.60;;;;;;;;;;5044734;28;20045;-77
2023/07/28 02:45:28;;;;;;;30.75;8.55;;;;;;;;;;5026890;28;20037;-76
2023/07/28 02:47:53;;;;;;;29.27;9.60;;;;;;;;;;5026763;28;21001;-75
2023/07/28 02:50:18;;;;;;;25.60;8.65;;;;;;;;;;5033581;28;20038;-77
2023/07/28 02:52:43;;;;;;;34.63;9.13;;;;;;;;;;5045648;28;20502;-75
2023/07/28 02:55:08;;;;;;;32.33;8.93;;;;;;;;;;5031626;28;20268;-76
2023/07/28 02:57:34;;;;;;;38.58;9.80;;;;;;;;;;5031831;28;20136;-75
2023/07/28 03:00:01;;;;;;;25.45;9.50;;;;;;;;;;5033525;28;20099;-76
2023/07/28 03:02:29;;;;;;;30.50;10.02;;;;;;;;;;5012843;28;20091;-76
2023/07/28 03:04:54;;;;;;;29.00;9.98;;;;;;;;;;5013784;28;20048;-76
2023/07/28 03:07:24;;;;;;;36.10;9.98;;;;;;;;;;5041870;28;20036;-76
2023/07/28 03:09:52;;;;;;;29.55;10.02;;;;;;;;;;5009226;28;20059;-75
2023/07/28 03:12:17;;;;;;;27.45;9.90;;;;;;;;;;5011124;28;20200;-76
2023/07/28 03:14:43;;;;;;;27.23;9.57;;;;;;;;;;5010095;28;20217;-76
2023/07/28 03:17:08;;;;;;;34.63;9.98;;;;;;;;;;5026015;28;20098;-76
2023/07/28 03:19:33;;;;;;;30.08;10.13;;;;;;;;;;5027912;28;20041;-76
2023/07/28 03:22:01;;;;;;;31.20;9.50;;;;;;;;;;5027451;28;20032;-76
2023/07/28 03:24:26;;;;;;;31.02;10.07;;;;;;;;;;5029478;28;20036;-77
2023/07/28 03:26:51;;;;;;;27.00;10.07;;;;;;;;;;5028567;28;20040;-75
2023/07/28 03:29:18;;;;;;;32.72;9.80;;;;;;;;;;5025684;28;20065;-76
2023/07/28 03:31:44;;;;;;;31.45;10.65;;;;;;;;;;5028733;28;20176;-75
2023/07/28 03:34:09;;;;;;;29.42;10.93;;;;;;;;;;5024254;28;20052;-76
2023/07/28 03:36:35;;;;;;;25.27;9.65;;;;;;;;;;5027466;28;20040;-75
2023/07/28 03:39:00;;;;;;;26.90;10.40;;;;;;;;;;5020506;28;20029;-75
2023/07/28 03:41:25;;;;;;;33.78;9.93;;;;;;;;;;5020531;28;20037;-76
2023/07/28 03:43:51;;;;;;;31.27;11.07;;;;;;;;;;5023081;28;20033;-73
2023/07/28 03:46:18;;;;;;;34.60;11.50;;;;;;;;;;5025260;28;20040;-75
2023/07/28 03:48:46;;;;;;;27.92;11.13;;;;;;;;;;5022231;28;20040;-77
2023/07/28 03:51:13;;;;;;;33.45;10.70;;;;;;;;;;5023386;28;20029;-77
2023/07/28 03:53:38;;;;;;;33.40;10.55;;;;;;;;;;5023686;28;20038;-76
2023/07/28 03:56:08;;;;;;;32.50;10.68;;;;;;;;;;5022923;28;20048;-75
2023/07/28 03:58:34;;;;;;;27.17;10.65;;;;;;;;;;5017229;28;20530;-76
2023/07/28 04:00:59;;;;;;;34.50;11.38;;;;;;;;;;5053280;28;20044;-77
2023/07/28 04:03:24;;;;;;;31.83;10.90;;;;;;;;;;5015408;28;20082;-77
2023/07/28 04:05:50;;;;;;;35.80;11.07;;;;;;;;;;5027230;28;20040;-77
2023/07/28 04:08:15;;;;;;;31.27;10.27;;;;;;;;;;5042513;28;20060;-76
2023/07/28 04:10:42;;;;;;;32.78;11.02;;;;;;;;;;5027297;28;20045;-76
2023/07/28 04:13:10;;;;;;;33.70;11.45;;;;;;;;;;5025748;28;20770;-76
2023/07/28 04:15:35;;;;;;;34.83;11.23;;;;;;;;;;5023580;28;20045;-76
2023/07/28 04:18:01;;;;;;;33.03;11.18;;;;;;;;;;5029215;28;20044;-78
2023/07/28 04:20:26;;;;;;;42.53;12.05;;;;;;;;;;5026312;28;20055;-77
2023/07/28 04:22:51;;;;;;;30.23;11.15;;;;;;;;;;5043753;28;20082;-78
2023/07/28 04:25:17;;;;;;;28.40;11.13;;;;;;;;;;5056369;28;20037;-78
2023/07/28 04:27:44;;;;;;;31.40;10.35;;;;;;;;;;5026626;28;20025;-78
2023/07/28 04:30:10;;;;;;;26.63;11.40;;;;;;;;;;5040729;28;20049;-77
2023/07/28 04:32:35;;;;;;;31.15;11.13;;;;;;;;;;5056209;28;20037;-77
2023/07/28 04:35:00;;;;;;;32.58;11.30;;;;;;;;;;5028250;28;20044;-76
2023/07/28 04:37:26;;;;;;;30.90;11.07;;;;;;;;;;5058304;28;20045;-77
2023/07/28 04:39:51;;;;;;;28.55;10.38;;;;;;;;;;5018068;28;20088;-77
2023/07/28 04:42:16;;;;;;;29.30;10.30;;;;;;;;;;5006934;28;20033;-77
2023/07/28 04:44:45;;;;;;;26.30;10.35;;;;;;;;;;5009271;28;20033;-77
2023/07/28 04:47:10;;;;;;;21.98;10.60;;;;;;;;;;5015854;28;20040;-77
2023/07/28 04:49:38;;;;;;;30.27;10.98;;;;;;;;;;5026313;28;20408;-77
2023/07/28 04:52:03;;;;;;;32.38;11.52;;;;;;;;;;5025912;28;20075;-77
2023/07/28 04:54:29;;;;;;;29.05;10.77;;;;;;;;;;5026578;28;20033;-77
2023/07/28 04:56:54;;;;;;;29.95;11.45;;;;;;;;;;5026306;28;20025;-77
2023/07/28 04:59:22;;;;;;;29.38;10.93;;;;;;;;;;5030251;28;20033;-77
2023/07/28 05:01:47;;;;;;;28.02;11.57;;;;;;;;;;5023392;28;20414;-76
2023/07/28 05:04:15;;;;;;;32.17;11.05;;;;;;;;;;5011103;28;20025;-77
2023/07/28 05:06:40;;;;;;;27.10;11.40;;;;;;;;;;5011514;28;20025;-77
2023/07/28 05:09:09;;;;;;;30.50;11.43;;;;;;;;;;5020028;28;20673;-75
2023/07/28 05:11:34;;;;;;;28.52;11.68;;;;;;;;;;5019883;28;20029;-75
2023/07/28 05:13:59;;;;;;;29.02;10.73;;;;;;;;;;5020430;28;20617;-75
2023/07/28 05:16:25;;;;;;;22.88;10.35;;;;;;;;;;5020073;28;20048;-75
2023/07/28 05:18:50;;;;;;;29.08;10.70;;;;;;;;;;5017649;28;20033;-76
2023/07/28 05:21:15;;;;;;;31.42;10.73;;;;;;;;;;5010033;28;20732;-76
2023/07/28 05:23:41;;;;;;;30.70;10.40;;;;;;;;;;5016372;28;20049;-76
2023/07/28 05:26:06;;;;;;;24.17;10.05;;;;;;;;;;5017251;28;20041;-75
2023/07/28 05:28:35;;;;;;;26.23;9.75;;;;;;;;;;5021053;28;20061;-76
2023/07/28 05:31:09;;;;;;;24.63;9.65;;;;;;;;;;5049021;28;20052;-76
2023/07/28 05:33:34;;;;;;;27.73;9.90;;;;;;;;;;5050437;28;20637;-76
2023/07/28 05:36:02;;;;;;;27.25;10.20;;;;;;;;;;5019435;28;20166;-76
2023/07/28 05:38:30;;;;;;;27.95;10.52;;;;;;;;;;5015528;28;20037;-76
2023/07/28 05:40:56;;;;;;;24.77;9.70;;;;;;;;;;5014784;28;20723;-76
2023/07/28 05:43:22;;;;;;;26.08;9.90;;;;;;;;;;5023307;28;20044;-77
2023/07/28 05:45:47;;;;;;;30.42;9.85;;;;;;;;;;5018590;28;20489;-77
2023/07/28 05:48:12;;;;;;;27.58;10.30;;;;;;;;;;5016602;28;20049;-75
2023/07/28 05:50:38;;;;;;;27.08;9.38;;;;;;;;;;5022991;28;20654;-77
2023/07/28 05:53:04;;;;;;;21.52;9.20;;;;;;;;;;5017261;28;20037;-76
2023/07/28 05:55:29;;;;;;;24.70;9.45;;;;;;;;;;5018252;28;20076;-76
2023/07/28 05:57:55;;;;;;;21.88;9.10;;;;;;;;;;5015931;28;20144;-76
2023/07/28 06:00:20;;;;;;;26.45;8.98;;;;;;;;;;5017015;28;20041;-75
2023/07/28 06:02:45;;;;;;;27.33;9.68;;;;;;;;;;5019059;28;20152;-75
2023/07/28 06:05:11;;;;;;;21.20;8.30;;;;;;;;;;5017239;28;20041;-76
2023/07/28 06:07:39;;;;;;;28.52;8.10;;;;;;;;;;5017059;28;20084;-77
2023/07/28 06:10:06;;;;;;;23.60;7.88;;;;;;;;;;5047641;28;20087;-78
2023/07/28 06:12:32;;;;;;;19.90;7.35;;;;;;;;;;5017144;28;20480;-78
2023/07/28 06:14:59;;;;;;;27.13;7.80;;;;;;;;;;5016008;28;20116;-78
2023/07/28 06:17:27;;;;;;;18.98;7.28;;;;;;;;;;5017692;28;20144;-76
2023/07/28 06:19:52;;;;;;;22.20;7.28;;;;;;;;;;5015678;28;20040;-78
2023/07/28 06:22:17;;;;;;;18.52;7.13;;;;;;;;;;5016489;28;20583;-76
2023/07/28 06:24:43;;;;;;;21.40;7.15;;;;;;;;;;5014935;28;20135;-77
2023/07/28 06:27:09;;;;;;;26.58;7.32;;;;;;;;;;5017022;28;20402;-77
2023/07/28 06:29:34;;;;;;;17.90;7.25;;;;;;;;;;5015048;28;20025;-78
2023/07/28 06:32:00;;;;;;;19.80;7.13;;;;;;;;;;5016743;28;20044;-76
2023/07/28 06:34:25;;;;;;;17.45;6.95;;;;;;;;;;5015987;28;20029;-77
2023/07/28 06:36:50;;;;;;;21.27;7.65;;;;;;;;;;5016327;28;20029;-75
2023/07/28 06:39:16;;;;;;;20.75;7.30;;;;;;;;;;5014483;28;20075;-77
2023/07/28 06:41:41;;;;;;;21.98;7.80;;;;;;;;;;5031930;28;22283;-82
2023/07/28 06:44:09;;;;;;;24.63;7.30;;;;;;;;;;5051928;28;20048;-80
2023/07/28 06:46:34;;;;;;;18.50;7.28;;;;;;;;;;5020171;28;20071;-79
2023/07/28 06:49:01;;;;;;;16.38;7.28;;;;;;;;;;5035910;28;20555;-78
2023/07/28 06:51:27;;;;;;;19.15;6.80;;;;;;;;;;5017788;28;20117;-81
2023/07/28 06:53:52;;;;;;;16.45;7.10;;;;;;;;;;5021088;28;20086;-80
2023/07/28 06:56:18;;;;;;;20.92;7.15;;;;;;;;;;4982601;28;20388;-78
2023/07/28 06:58:46;;;;;;;16.80;6.50;;;;;;;;;;5003580;28;20096;-79
2023/07/28 07:01:11;;;;;;;15.75;6.07;;;;;;;;;;5017353;28;20116;-81
2023/07/28 07:03:37;;;;;;;16.23;6.13;;;;;;;;;;5013187;28;22887;-80
2023/07/28 07:06:05;;;;;;;21.67;6.45;;;;;;;;;;5014751;28;20041;-80
2023/07/28 07:08:33;;;;;;;24.08;6.97;;;;;;;;;;5053460;28;20105;-75
2023/07/28 07:10:59;;;;;;;16.40;6.15;;;;;;;;;;5053813;28;20037;-81
2023/07/28 07:13:26;;;;;;;22.65;7.68;;;;;;;;;;5024513;28;20235;-79
2023/07/28 07:15:52;;;;;;;25.55;6.65;;;;;;;;;;5022160;28;20049;-78
2023/07/28 07:18:17;;;;;;;16.10;6.82;;;;;;;;;;5035974;28;21849;-72
2023/07/28 07:20:42;;;;;;;18.92;7.43;;;;;;;;;;5016335;28;20033;-76
2023/07/28 07:23:08;;;;;;;20.27;7.13;;;;;;;;;;5000357;28;20037;-77
2023/07/28 07:25:37;;;;;;;18.67;7.18;;;;;;;;;;5019608;28;20197;-76
2023/07/28 07:28:03;;;;;;;17.90;6.82;;;;;;;;;;5014242;28;20041;-76
2023/07/28 07:30:28;;;;;;;21.83;7.45;;;;;;;;;;5016601;28;20049;-71
2023/07/28 07:32:53;;;;;;;22.77;7.82;;;;;;;;;;5018251;28;20486;-76
2023/07/28 07:35:19;;;;;;;18.77;7.47;;;;;;;;;;5037698;28;20051;-77
2023/07/28 07:37:46;;;;;;;18.33;7.07;;;;;;;;;;5011982;28;21697;-76
2023/07/28 07:40:14;;;;;;;16.23;7.25;;;;;;;;;;5037812;28;20369;-76
2023/07/28 07:42:43;;;;;;;16.40;7.00;;;;;;;;;;5041847;28;20033;-75
2023/07/28 07:45:10;;;;;;;20.23;6.80;;;;;;;;;;5011786;28;20288;-76
2023/07/28 07:47:35;;;;;;;22.52;7.68;;;;;;;;;;4993507;28;20129;-76
2023/07/28 07:50:04;;;;;;;20.23;7.78;;;;;;;;;;4993827;28;20033;-77
2023/07/28 07:52:30;;;;;;;15.40;7.32;;;;;;;;;;4996147;28;20045;-77
2023/07/28 07:54:55;;;;;;;16.60;7.07;;;;;;;;;;4991367;28;20044;-77
2023/07/28 07:57:20;;;;;;;15.52;7.25;;;;;;;;;;5009906;28;20552;-75
2023/07/28 07:59:50;;;;;;;18.35;7.05;;;;;;;;;;4992195;28;20069;-77
2023/07/28 08:02:17;;;;;;;19.30;7.22;;;;;;;;;;5007688;28;20603;-76
2023/07/28 08:04:45;;;;;;;14.68;6.65;;;;;;;;;;5005931;28;20102;-76
2023/07/28 08:07:10;;;;;;;18.77;7.15;;;;;;;;;;5011922;28;20045;-73
2023/07/28 08:09:38;;;;;;;23.10;7.50;;;;;;;;;;4996275;28;20130;-78
2023/07/28 08:12:04;;;;;;;17.73;7.10;;;;;;;;;;4997593;28;20164;-75
2023/07/28 08:14:29;;;;;;;19.00;7.00;;;;;;;;;;4997221;28;20034;-75
2023/07/28 08:16:54;;;;;;;20.35;7.03;;;;;;;;;;5009515;28;20061;-75
2023/07/28 08:19:20;;;;;;;20.65;7.20;;;;;;;;;;4997506;28;20230;-78
2023/07/28 08:21:47;;;;;;;16.10;7.05;;;;;;;;;;4990664;28;20034;-76
2023/07/28 08:24:15;;;;;;;16.15;6.65;;;;;;;;;;5030933;28;20036;-76
2023/07/28 08:26:41;;;;;;;18.23;7.07;;;;;;;;;;5046729;28;20647;-75
2023/07/28 08:29:06;;;;;;;20.90;7.38;;;;;;;;;;5013325;28;20040;-77
2023/07/28 08:31:31;;;;;;;17.67;6.55;;;;;;;;;;5015307;28;20054;-75
2023/07/28 08:33:56;;;;;;;19.73;6.72;;;;;;;;;;5017419;28;20646;-74
2023/07/28 08:36:22;;;;;;;17.95;6.38;;;;;;;;;;5013968;28;20186;-74
2023/07/28 08:38:50;;;;;;;20.40;7.32;;;;;;;;;;5046383;28;20158;-76
2023/07/28 08:41:18;;;;;;;18.33;6.97;;;;;;;;;;4996284;28;20460;-76
2023/07/28 08:43:43;;;;;;;18.30;6.60;;;;;;;;;;5009037;28;20785;-76
2023/07/28 08:46:09;;;;;;;22.73;6.97;;;;;;;;;;4995290;28;20117;-74
2023/07/28 08:48:36;;;;;;;15.27;6.57;;;;;;;;;;4999762;28;20130;-76
2023/07/28 08:51:04;;;;;;;14.85;5.97;;;;;;;;;;4996835;28;20038;-78
2023/07/28 08:53:30;;;;;;;17.15;6.57;;;;;;;;;;5013776;28;20033;-78
2023/07/28 08:55:56;;;;;;;21.75;6.57;;;;;;;;;;5016853;28;20083;-78
2023/07/28 08:58:22;;;;;;;16.48;6.78;;;;;;;;;;5016191;28;20140;-77
2023/07/28 09:00:53;;;;;;;17.77;5.90;;;;;;;;;;5020913;28;22488;-78
2023/07/28 09:03:22;;;;;;;18.95;6.60;;;;;;;;;;5000751;28;20037;-76
2023/07/28 09:05:48;;;;;;;15.43;6.25;;;;;;;;;;4998384;28;20044;-79
2023/07/28 09:08:14;;;;;;;22.15;6.72;;;;;;;;;;5021611;28;20810;-77
2023/07/28 09:10:45;;;;;;;16.80;6.10;;;;;;;;;;5038902;28;20066;-76
2023/07/28 09:13:13;;;;;;;17.50;5.82;;;;;;;;;;5047743;28;20045;-75
2023/07/28 09:15:39;;;;;;;15.68;6.05;;;;;;;;;;5015256;28;20047;-78
2023/07/28 09:18:07;;;;;;;16.08;6.15;;;;;;;;;;5011450;28;20481;-76
2023/07/28 09:20:36;;;;;;;17.65;6.22;;;;;;;;;;5017226;28;20052;-76
2023/07/28 09:23:01;;;;;;;17.08;5.35;;;;;;;;;;4996093;28;20130;-76
2023/07/28 09:25:28;;;;;;;12.48;5.85;;;;;;;;;;5015244;28;20033;-79
2023/07/28 09:27:53;;;;;;;16.45;5.60;;;;;;;;;;5045861;28;20036;-78
2023/07/28 09:30:23;;;;;;;13.43;5.32;;;;;;;;;;5011191;28;20047;-76
2023/07/28 09:32:49;;;;;;;14.10;5.70;;;;;;;;;;5010150;28;20048;-75
2023/07/28 09:35:15;;;;;;;17.80;6.05;;;;;;;;;;5010236;28;20043;-76
2023/07/28 09:37:41;;;;;;;15.32;5.45;;;;;;;;;;5009618;28;20411;-75
2023/07/28 09:40:13;;;;;;;17.20;5.22;;;;;;;;;;5013170;28;20040;-75
2023/07/28 09:42:38;;;;;;;;;;;;;;;;;;5018840;28;20041;-74
2023/07/28 09:45:05;;;;;;;19.63;5.53;;;;;;;;;;5011598;28;20354;-74
2023/07/28 09:47:30;;;;;;;15.70;5.47;;;;;;;;;;5015421;28;20237;-76
2023/07/28 09:49:58;;;;;;;15.52;5.63;;;;;;;;;;5012741;28;20033;-76
2023/07/28 09:52:24;;;;;;;14.10;5.40;;;;;;;;;;5047139;28;20041;-76
2023/07/28 09:54:51;;;;;;;16.25;5.75;;;;;;;;;;5014362;28;20044;-75
2023/07/28 09:57:19;;;;;;;15.45;4.95;;;;;;;;;;5013110;28;20165;-76
2023/07/28 09:59:48;;;;;;;19.05;5.60;;;;;;;;;;5042396;28;20043;-75
2023/07/28 10:02:13;;;;;;;18.58;5.40;;;;;;;;;;5012966;28;20572;-76
2023/07/28 10:04:39;;;;;;;12.55;5.50;;;;;;;;;;5004512;28;20042;-76
2023/07/28 10:07:05;;;;;;;13.90;5.53;;;;;;;;;;4990423;28;20033;-75
2023/07/28 10:09:33;;;;;;;13.57;5.20;;;;;;;;;;5006635;28;20065;-76
2023/07/28 10:11:59;;;;;;;13.93;5.80;;;;;;;;;;4991880;28;20101;-76
2023/07/28 10:14:31;;;;;;;12.80;5.65;;;;;;;;;;4994094;28;20033;-74
2023/07/28 10:17:01;;;;;;;13.35;6.13;;;;;;;;;;4993814;28;20538;-76
2023/07/28 10:19:27;;;;;;;14.48;5.65;;;;;;;;;;5043050;28;20037;-77
2023/07/28 10:22:00;;;;;;;10.70;5.32;;;;;;;;;;5028004;28;20068;-76
2023/07/28 10:24:46;;;;;;;12.50;5.45;;;;;;;;;;5010077;28;20340;-75
2023/07/28 10:27:29;;;;;;;13.32;5.18;;;;;;;;;;5045227;28;20567;-75
2023/07/28 10:30:03;;;;;;;11.50;5.20;;;;;;;;;;5015577;28;20029;-74
2023/07/28 10:32:31;;;;;;;14.60;5.47;;;;;;;;;;5013512;28;20040;-75
2023/07/28 10:35:22;;;;;;;12.05;4.88;;;;;;;;;;5016247;28;20058;-75
2023/07/28 10:37:48;;;;;;;11.80;5.32;;;;;;;;;;5014712;28;20048;-76
2023/07/28 10:40:26;;;;;;;12.90;5.32;;;;;;;;;;5013835;28;20033;-76
2023/07/28 10:42:52;;;;;;;13.73;5.15;;;;;;;;;;5014343;28;20075;-74
2023/07/28 10:45:18;;;;;;;16.17;4.82;;;;;;;;;;5045351;28;20029;-79
2023/07/28 10:47:43;;;;;;;15.13;4.35;;;;;;;;;;5004817;28;20048;-76
2023/07/28 10:50:09;;;;;;;12.38;4.22;;;;;;;;;;5020160;28;20041;-77
2023/07/28 10:52:34;;;;;;;14.38;4.20;;;;;;;;;;5018654;28;20816;-79
2023/07/28 10:55:00;;;;;;;11.65;4.72;;;;;;;;;;5018981;28;20171;-76
2023/07/28 10:57:27;;;;;;;13.60;4.88;;;;;;;;;;5002307;28;20049;-75
2023/07/28 10:59:53;;;;;;;12.05;4.43;;;;;;;;;;4998049;28;20383;-75
2023/07/28 11:02:19;;;;;;;15.60;4.10;;;;;;;;;;4997819;28;20100;-73
2023/07/28 11:04:48;;;;;;;14.63;4.40;;;;;;;;;;4997468;28;20038;-76
2023/07/28 11:07:13;;;;;;;18.45;5.03;;;;;;;;;;4995245;28;20033;-77
2023/07/28 11:09:38;;;;;;;15.88;5.05;;;;;;;;;;4997450;28;20076;-73
2023/07/28 11:12:04;;;;;;;17.50;4.53;;;;;;;;;;4997028;28;20033;-75
2023/07/28 11:14:29;;;;;;;9.95;3.95;;;;;;;;;;4997523;28;20635;-75
2023/07/28 11:16:55;;;;;;;13.60;4.07;;;;;;;;;;4997213;28;20119;-74
2023/07/28 11:19:24;;;;;;;10.82;4.20;;;;;;;;;;4999158;28;20033;-77
2023/07/28 11:21:51;;;;;;;13.02;4.38;;;;;;;;;;5019025;28;20037;-76
2023/07/28 11:24:20;;;;;;;12.15;4.05;;;;;;;;;;5018854;28;20036;-75
2023/07/28 11:26:48;;;;;;;12.02;4.38;;;;;;;;;;5019746;28;20515;-77
2023/07/28 11:29:16;;;;;;;13.52;4.20;;;;;;;;;;5016816;28;20025;-78
2023/07/28 11:31:41;;;;;;;13.55;4.32;;;;;;;;;;5016601;28;20510;-73
2023/07/28 11:34:18;;;;;;;13.85;4.25;;;;;;;;;;5014711;28;20516;-75
2023/07/28 11:36:46;;;;;;;13.80;4.57;;;;;;;;;;5032303;28;20101;-76
2023/07/28 11:39:12;;;;;;;14.85;4.15;;;;;;;;;;5015904;28;20036;-76
2023/07/28 11:41:38;;;;;;;13.52;4.00;;;;;;;;;;5018104;28;20212;-76
2023/07/28 11:44:07;;;;;;;7.75;3.80;;;;;;;;;;5046494;28;20079;-75
2023/07/28 11:46:32;;;;;;;11.02;4.30;;;;;;;;;;5017009;28;20060;-77
2023/07/28 11:49:11;;;;;;;9.90;4.18;;;;;;;;;;5012338;28;20444;-75
2023/07/28 11:51:38;;;;;;;10.25;3.90;;;;;;;;;;5030678;28;20125;-77
2023/07/28 11:54:04;;;;;;;10.77;4.18;;;;;;;;;;5031796;28;20087;-78
2023/07/28 11:56:29;;;;;;;12.70;3.97;;;;;;;;;;5016242;28;20045;-76
2023/07/28 11:58:55;;;;;;;8.85;4.13;;;;;;;;;;5018148;28;20044;-76
2023/07/28 12:01:23;;;;;;;12.23;4.30;;;;;;;;;;5029593;28;20330;-75
2023/07/28 12:03:51;;;;;;;9.75;3.63;;;;;;;;;;5015013;28;20040;-75
2023/07/28 12:06:16;;;;;;;9.27;4.07;;;;;;;;;;5032213;28;20053;-78
2023/07/28 12:08:41;;;;;;;10.85;3.88;;;;;;;;;;5016060;28;20054;-75
2023/07/28 12:11:12;;;;;;;13.00;4.10;;;;;;;;;;5018024;28;20514;-77
2023/07/28 12:14:06;;;;;;;9.68;4.03;;;;;;;;;;5016445;28;20041;-77
2023/07/28 12:16:40;;;;;;;12.68;4.20;;;;;;;;;;5016491;28;20036;-75
2023/07/28 12:19:05;;;;;;;11.80;4.65;;;;;;;;;;5033691;28;20036;-77
2023/07/28 12:21:31;;;;;;;14.80;4.53;;;;;;;;;;5048107;28;20477;-78
2023/07/28 12:23:56;;;;;;;12.20;4.65;;;;;;;;;;5030824;28;20043;-77
2023/07/28 12:26:22;;;;;;;16.75;4.95;;;;;;;;;;5012755;28;20041;-78
2023/07/28 12:28:47;;;;;;;15.55;5.28;;;;;;;;;;5021574;28;20029;-75
2023/07/28 12:31:12;;;;;;;12.70;5.07;;;;;;;;;;5021088;28;20124;-75
2023/07/28 12:33:38;;;;;;;13.23;4.97;;;;;;;;;;5025701;28;20099;-75
2023/07/28 12:36:03;;;;;;;11.40;5.22;;;;;;;;;;5040579;28;20038;-74
2023/07/28 12:38:28;;;;;;;13.13;5.22;;;;;;;;;;5022183;28;20148;-76
2023/07/28 12:40:57;;;;;;;13.23;5.57;;;;;;;;;;5016569;28;20036;-76
2023/07/28 12:43:22;;;;;;;11.18;5.05;;;;;;;;;;5017951;28;20033;-76
2023/07/28 12:45:48;;;;;;;13.88;5.30;;;;;;;;;;5011168;28;20136;-77
2023/07/28 12:48:13;;;;;;;13.32;5.10;;;;;;;;;;5014604;28;20036;-77
2023/07/28 12:50:38;;;;;;;9.35;4.70;;;;;;;;;;5013597;28;20041;-78
2023/07/28 12:53:04;;;;;;;11.10;4.20;;;;;;;;;;5017310;28;20071;-76
2023/07/28 12:55:29;;;;;;;10.63;4.47;;;;;;;;;;5004322;28;20052;-80
2023/07/28 12:57:54;;;;;;;10.07;4.40;;;;;;;;;;5018390;28;20038;-79
2023/07/28 13:00:22;;;;;;;10.10;4.25;;;;;;;;;;5017313;28;20043;-77
2023/07/28 13:02:49;;;;;;;14.23;4.55;;;;;;;;;;5017937;28;20033;-75
2023/07/28 13:05:17;;;;;;;14.70;4.97;;;;;;;;;;5013698;28;20041;-75
2023/07/28 13:07:42;;;;;;;13.77;4.78;;;;;;;;;;5009415;28;20056;-75
2023/07/28 13:10:12;;;;;;;10.68;3.92;;;;;;;;;;5008843;28;20037;-74
2023/07/28 13:12:38;;;;;;;7.13;3.63;;;;;;;;;;4996744;28;20068;-75
2023/07/28 13:15:03;;;;;;;13.07;3.50;;;;;;;;;;4994578;28;20053;-80
2023/07/28 13:17:29;;;;;;;10.30;3.40;;;;;;;;;;5000910;28;20036;-76
2023/07/28 13:19:54;;;;;;;9.77;3.50;;;;;;;;;;5029651;28;20129;-76
2023/07/28 13:22:19;;;;;;;8.35;3.00;;;;;;;;;;5039952;28;20028;-77
2023/07/28 13:24:45;;;;;;;13.13;3.30;;;;;;;;;;5011557;28;20037;-75
2023/07/28 13:27:10;;;;;;;11.00;3.60;;;;;;;;;;5012791;28;20583;-76
2023/07/28 13:29:36;;;;;;;9.00;3.17;;;;;;;;;;5013488;28;20123;-76
2023/07/28 13:32:01;;;;;;;7.15;2.97;;;;;;;;;;5013437;28;20048;-75
2023/07/28 13:34:27;;;;;;;12.18;3.40;;;;;;;;;;5016941;28;20071;-75
2023/07/28 13:36:52;;;;;;;7.57;3.30;;;;;;;;;;5012695;28;20064;-76
2023/07/28 13:39:20;;;;;;;9.00;3.17;;;;;;;;;;4994362;28;20043;-75
2023/07/28 13:41:48;;;;;;;9.80;2.72;;;;;;;;;;5001731;28;20051;-77
2023/07/28 13:44:13;;;;;;;7.80;3.25;;;;;;;;;;5002739;28;20037;-74
2023/07/28 13:46:38;;;;;;;6.43;3.03;;;;;;;;;;4994311;28;20558;-77
2023/07/28 13:49:04;;;;;;;6.45;3.05;;;;;;;;;;5009141;28;20375;-77
2023/07/28 13:51:29;;;;;;;9.00;2.97;;;;;;;;;;4993785;28;20918;-76
2023/07/28 13:53:54;;;;;;;8.00;2.85;;;;;;;;;;4999745;28;20567;-79
2023/07/28 13:56:20;;;;;;;6.22;2.95;;;;;;;;;;4995287;28;20244;-74
2023/07/28 13:58:45;;;;;;;6.85;2.80;;;;;;;;;;4995917;28;20040;-75
2023/07/28 14:01:15;;;;;;;6.47;3.13;;;;;;;;;;5006965;28;20091;-76
2023/07/28 14:03:41;;;;;;;8.45;3.10;;;;;;;;;;5014513;28;20632;-79
2023/07/28 14:06:06;;;;;;;6.57;3.28;;;;;;;;;;5014496;28;20039;-78
2023/07/28 14:08:32;;;;;;;12.82;3.72;;;;;;;;;;5013848;28;20457;-79
2023/07/28 14:10:57;;;;;;;9.57;3.80;;;;;;;;;;5010761;28;20121;-78
2023/07/28 14:13:22;;;;;;;10.35;4.18;;;;;;;;;;5026040;28;20045;-75
2023/07/28 14:15:48;;;;;;;7.60;3.70;;;;;;;;;;4996737;28;22305;-74
2023/07/28 14:18:13;;;;;;;10.55;4.40;;;;;;;;;;4995048;28;20157;-77
2023/07/28 14:20:38;;;;;;;11.32;4.25;;;;;;;;;;4998138;28;20029;-75
2023/07/28 14:23:20;;;;;;;8.27;3.97;;;;;;;;;;4996829;28;20042;-76
2023/07/28 14:25:45;;;;;;;9.80;4.15;;;;;;;;;;5017471;28;20044;-74